createdAt,value
2022-12-31T00:00:13.850Z,6.64
2022-12-31T00:03:00.996Z,6.62
2022-12-31T00:05:32.769Z,6.60
2022-12-31T00:07:59.524Z,6.58
2022-12-31T00:10:26.252Z,6.56
2022-12-31T00:12:54.957Z,6.53
2022-12-31T00:15:21.577Z,6.50
2022-12-31T00:17:48.031Z,6.52
2022-12-31T00:20:14.492Z,6.57
2022-12-31T00:22:41.102Z,6.61
2022-12-31T00:25:08.104Z,6.66
2022-12-31T00:27:34.539Z,6.69
2022-12-31T00:30:04.639Z,6.71
2022-12-31T00:32:31.546Z,6.72
2022-12-31T00:34:58.445Z,6.73
2022-12-31T00:37:25.225Z,6.73
2022-12-31T00:39:51.696Z,6.74
2022-12-31T00:42:18.203Z,6.73
2022-12-31T00:44:44.725Z,6.75
2022-12-31T00:47:11.199Z,6.80
2022-12-31T00:49:37.704Z,6.85
2022-12-31T00:52:04.865Z,6.89
2022-12-31T00:54:31.298Z,6.92
2022-12-31T00:56:57.880Z,6.96
2022-12-31T00:59:24.755Z,6.97
2022-12-31T01:01:51.304Z,6.98
2022-12-31T01:04:20.197Z,6.96
2022-12-31T01:06:47.047Z,6.97
2022-12-31T01:09:13.970Z,6.97
2022-12-31T01:11:40.692Z,6.98
2022-12-31T01:14:09.532Z,7.02
2022-12-31T01:16:40.216Z,7.07
2022-12-31T01:19:09.566Z,7.11
2022-12-31T01:21:39.022Z,7.16
2022-12-31T01:24:05.794Z,7.18
2022-12-31T01:26:32.377Z,7.19
2022-12-31T01:28:59.147Z,7.19
2022-12-31T01:31:25.766Z,7.17
2022-12-31T01:33:52.936Z,7.16
2022-12-31T01:36:27.434Z,7.15
2022-12-31T01:38:55.473Z,7.14
2022-12-31T01:41:32.274Z,7.14
2022-12-31T01:44:01.442Z,7.19
2022-12-31T01:46:37.074Z,7.25
2022-12-31T01:49:15.489Z,7.32
2022-12-31T01:51:43.645Z,7.36
2022-12-31T01:54:12.490Z,7.39
2022-12-31T01:56:39.981Z,7.39
2022-12-31T01:59:08.407Z,7.40
2022-12-31T02:01:36.938Z,7.41
2022-12-31T02:04:07.454Z,7.42
2022-12-31T02:06:44.157Z,7.44
2022-12-31T02:09:11.778Z,7.51
2022-12-31T02:11:38.453Z,7.58
2022-12-31T02:14:09.795Z,7.64
2022-12-31T02:16:58.505Z,7.69
2022-12-31T02:19:57.299Z,7.72
2022-12-31T02:23:01.062Z,7.73
2022-12-31T02:25:30.777Z,7.74
2022-12-31T02:28:12.234Z,7.75
2022-12-31T02:30:39.912Z,7.79
2022-12-31T02:33:12.267Z,7.84
2022-12-31T02:35:58.478Z,7.90
2022-12-31T02:38:30.531Z,7.96
2022-12-31T02:40:57.207Z,7.98
2022-12-31T02:43:24.200Z,8.02
2022-12-31T02:46:17.746Z,8.02
2022-12-31T02:48:55.433Z,8.00
2022-12-31T02:51:47.937Z,7.98
2022-12-31T02:54:51.956Z,8.01
2022-12-31T02:57:38.802Z,8.07
2022-12-31T03:00:29.706Z,8.12
2022-12-31T03:02:57.375Z,8.14
2022-12-31T03:05:27.072Z,8.15
2022-12-31T03:07:53.774Z,8.13
2022-12-31T03:10:20.520Z,8.13
2022-12-31T03:12:47.636Z,8.11
2022-12-31T03:15:22.776Z,8.08
2022-12-31T03:18:07.672Z,8.10
2022-12-31T03:20:58.282Z,8.13
2022-12-31T03:23:38.947Z,8.19
2022-12-31T03:26:10.499Z,8.21
2022-12-31T03:28:39.610Z,8.24
2022-12-31T03:31:06.838Z,8.24
2022-12-31T03:33:38.639Z,8.24
2022-12-31T03:36:10.172Z,8.21
2022-12-31T03:38:36.925Z,8.17
2022-12-31T03:41:03.215Z,8.17
2022-12-31T03:43:29.822Z,8.21
2022-12-31T03:45:59.082Z,8.23
2022-12-31T03:48:25.497Z,8.28
2022-12-31T03:50:52.123Z,8.31
2022-12-31T03:53:18.833Z,8.32
2022-12-31T03:55:45.257Z,8.31
2022-12-31T03:58:11.878Z,8.29
2022-12-31T04:00:38.491Z,8.26
2022-12-31T04:03:07.939Z,8.22
2022-12-31T04:05:34.751Z,8.17
2022-12-31T04:08:06.938Z,8.15
2022-12-31T04:10:33.300Z,8.16
2022-12-31T04:13:03.629Z,8.19
2022-12-31T04:15:31.149Z,8.22
2022-12-31T04:17:57.471Z,8.24
2022-12-31T04:20:24.196Z,8.24
2022-12-31T04:22:50.786Z,8.23
2022-12-31T04:25:17.185Z,8.22
2022-12-31T04:27:43.930Z,8.20
2022-12-31T04:30:14.143Z,8.17
2022-12-31T04:32:41.327Z,8.17
2022-12-31T04:35:08.974Z,8.21
2022-12-31T04:37:35.836Z,8.24
2022-12-31T04:40:06.240Z,8.25
2022-12-31T04:42:34.372Z,8.27
2022-12-31T04:45:00.931Z,8.27
2022-12-31T04:47:27.451Z,8.26
2022-12-31T04:49:53.924Z,8.24
2022-12-31T04:52:20.527Z,8.21
2022-12-31T04:54:46.919Z,8.22
2022-12-31T04:57:13.628Z,8.26
2022-12-31T04:59:43.319Z,8.30
2022-12-31T05:02:09.840Z,8.34
2022-12-31T05:04:36.632Z,8.36
2022-12-31T05:07:03.281Z,8.36
2022-12-31T05:09:30.308Z,8.35
2022-12-31T05:11:56.870Z,8.33
2022-12-31T05:14:23.263Z,8.31
2022-12-31T05:16:50.052Z,8.31
2022-12-31T05:19:17.109Z,8.33
2022-12-31T05:21:43.529Z,8.36
2022-12-31T05:24:09.975Z,8.39
2022-12-31T05:26:36.473Z,8.41
2022-12-31T05:29:02.891Z,8.41
2022-12-31T05:31:29.623Z,8.43
2022-12-31T05:33:56.447Z,8.42
2022-12-31T05:36:22.868Z,8.42
2022-12-31T05:38:49.578Z,8.46
2022-12-31T05:41:16.375Z,8.50
2022-12-31T05:43:42.658Z,8.52
2022-12-31T05:46:09.077Z,8.53
2022-12-31T05:48:36.331Z,8.53
2022-12-31T05:51:02.597Z,8.53
2022-12-31T05:53:29.133Z,8.50
2022-12-31T05:55:55.931Z,8.46
2022-12-31T05:58:22.640Z,8.46
2022-12-31T06:00:48.970Z,8.49
2022-12-31T06:03:15.678Z,8.54
2022-12-31T06:05:44.789Z,8.59
2022-12-31T06:08:11.636Z,8.62
2022-12-31T06:10:39.357Z,8.63
2022-12-31T06:13:06.109Z,8.64
2022-12-31T06:15:32.395Z,8.64
2022-12-31T06:17:59.056Z,8.64
2022-12-31T06:20:25.576Z,8.67
2022-12-31T06:22:52.018Z,8.70
2022-12-31T06:25:18.624Z,8.73
2022-12-31T06:27:45.395Z,8.77
2022-12-31T06:30:11.961Z,8.79
2022-12-31T06:32:40.063Z,8.79
2022-12-31T06:35:07.043Z,8.76
2022-12-31T06:37:33.407Z,8.77
2022-12-31T06:40:00.655Z,8.82
2022-12-31T06:42:30.990Z,8.86
2022-12-31T06:44:58.398Z,8.91
2022-12-31T06:47:25.491Z,8.94
2022-12-31T06:49:52.459Z,8.95
2022-12-31T06:52:18.813Z,8.95
2022-12-31T06:54:45.669Z,8.95
2022-12-31T06:57:12.494Z,8.97
2022-12-31T06:59:39.288Z,9.02
2022-12-31T07:02:33.295Z,9.06
2022-12-31T07:05:06.301Z,9.08
2022-12-31T07:07:36.551Z,9.09
2022-12-31T07:10:29.418Z,9.08
2022-12-31T07:13:24.401Z,9.09
2022-12-31T07:16:00.583Z,9.11
2022-12-31T07:18:38.790Z,9.17
2022-12-31T07:21:13.445Z,9.20
2022-12-31T07:23:41.392Z,9.23
2022-12-31T07:26:38.455Z,9.27
2022-12-31T07:29:12.996Z,9.29
2022-12-31T07:31:48.440Z,9.34
2022-12-31T07:34:42.660Z,9.39
2022-12-31T07:37:13.476Z,9.44
2022-12-31T07:40:12.591Z,9.47
2022-12-31T07:43:03.021Z,9.49
2022-12-31T07:45:40.425Z,9.50
2022-12-31T07:48:20.911Z,9.52
2022-12-31T07:50:48.139Z,9.56
2022-12-31T07:53:14.813Z,9.61
2022-12-31T07:55:41.092Z,9.66
2022-12-31T07:58:57.179Z,9.68
2022-12-31T08:01:51.951Z,9.69
2022-12-31T08:04:44.878Z,9.71
2022-12-31T08:07:39.545Z,9.73
2022-12-31T08:10:18.603Z,9.77
2022-12-31T08:12:46.495Z,9.83
2022-12-31T08:15:15.095Z,9.85
2022-12-31T08:17:41.944Z,9.87
2022-12-31T08:20:13.831Z,9.91
2022-12-31T08:23:11.674Z,9.95
2022-12-31T08:25:58.886Z,9.99
2022-12-31T08:28:55.530Z,10.05
2022-12-31T08:31:51.353Z,10.10
2022-12-31T08:34:25.079Z,10.11
2022-12-31T08:37:10.708Z,10.12
2022-12-31T08:40:09.226Z,10.16
2022-12-31T08:43:21.712Z,10.21
2022-12-31T08:45:50.976Z,10.28
2022-12-31T08:48:29.999Z,10.31
2022-12-31T08:50:57.090Z,10.33
2022-12-31T08:53:23.975Z,10.33
2022-12-31T08:55:58.330Z,10.37
2022-12-31T08:58:47.344Z,10.40
2022-12-31T09:01:14.470Z,10.46
2022-12-31T09:04:23.583Z,10.51
2022-12-31T09:06:58.040Z,10.56
2022-12-31T09:09:37.661Z,10.59
2022-12-31T09:12:59.683Z,10.62
2022-12-31T09:15:33.890Z,10.67
2022-12-31T09:18:00.538Z,10.71
2022-12-31T09:20:42.187Z,10.76
2022-12-31T09:23:09.983Z,10.80
2022-12-31T09:25:42.617Z,10.82
2022-12-31T09:28:15.861Z,10.86
2022-12-31T09:30:53.246Z,10.84
2022-12-31T09:33:32.025Z,10.82
2022-12-31T09:36:06.099Z,10.84
2022-12-31T09:38:47.691Z,10.90
2022-12-31T09:41:35.615Z,10.96
2022-12-31T09:44:23.500Z,11.00
2022-12-31T09:47:11.888Z,11.05
2022-12-31T09:49:57.053Z,11.09
2022-12-31T09:52:53.061Z,11.11
2022-12-31T09:55:47.362Z,11.14
2022-12-31T09:58:24.244Z,11.18
2022-12-31T10:01:28.614Z,11.24
2022-12-31T10:04:04.630Z,11.30
2022-12-31T10:06:31.242Z,11.34
2022-12-31T10:09:09.845Z,11.33
2022-12-31T10:11:48.114Z,11.32
2022-12-31T10:14:46.932Z,11.33
2022-12-31T10:17:23.083Z,11.38
2022-12-31T10:19:57.646Z,11.45
2022-12-31T10:22:33.232Z,11.46
2022-12-31T10:25:03.280Z,11.48
2022-12-31T10:27:49.305Z,11.50
2022-12-31T10:30:18.947Z,11.54
2022-12-31T10:33:04.375Z,11.59
2022-12-31T10:35:52.725Z,11.63
2022-12-31T10:38:40.303Z,11.70
2022-12-31T10:41:26.013Z,11.73
2022-12-31T10:44:30.662Z,11.76
2022-12-31T10:47:09.960Z,11.79
2022-12-31T10:49:51.567Z,11.84
2022-12-31T10:52:39.779Z,11.90
2022-12-31T10:55:36.245Z,11.94
2022-12-31T10:58:57.353Z,11.98
2022-12-31T11:01:23.623Z,12.04
2022-12-31T11:04:02.279Z,12.04
2022-12-31T11:06:45.182Z,12.06
2022-12-31T11:09:52.672Z,12.10
2022-12-31T11:12:46.418Z,12.17
2022-12-31T11:15:17.887Z,12.22
2022-12-31T11:18:03.547Z,12.27
2022-12-31T11:20:47.387Z,12.29
2022-12-31T11:23:32.291Z,12.29
2022-12-31T11:26:36.644Z,12.26
2022-12-31T11:29:12.532Z,12.28
2022-12-31T11:31:51.560Z,12.31
2022-12-31T11:34:42.595Z,12.34
2022-12-31T11:37:41.909Z,12.37
2022-12-31T11:40:23.483Z,12.37
2022-12-31T11:43:11.320Z,12.38
2022-12-31T11:46:09.286Z,12.36
2022-12-31T11:48:57.158Z,12.38
2022-12-31T11:51:39.206Z,12.41
2022-12-31T11:54:27.425Z,12.46
2022-12-31T11:57:03.951Z,12.48
2022-12-31T11:59:30.800Z,12.48
2022-12-31T12:02:19.163Z,12.50
2022-12-31T12:04:48.740Z,12.51
2022-12-31T12:07:16.130Z,12.54
2022-12-31T12:09:44.590Z,12.58
2022-12-31T12:12:11.936Z,12.61
2022-12-31T12:14:41.098Z,12.63
2022-12-31T12:17:09.996Z,12.65
2022-12-31T12:19:43.605Z,12.66
2022-12-31T12:22:13.160Z,12.67
2022-12-31T12:24:40.317Z,12.66
2022-12-31T12:27:20.815Z,12.70
2022-12-31T12:29:47.998Z,12.75
2022-12-31T12:32:17.729Z,12.78
2022-12-31T12:34:49.416Z,12.83
2022-12-31T12:37:32.494Z,12.86
2022-12-31T12:40:05.212Z,12.87
2022-12-31T12:42:32.013Z,12.87
2022-12-31T12:45:07.202Z,12.88
2022-12-31T12:47:34.299Z,12.90
2022-12-31T12:50:00.854Z,12.93
2022-12-31T12:52:42.666Z,12.95
2022-12-31T12:55:11.891Z,12.97
2022-12-31T12:57:59.987Z,12.98
2022-12-31T13:01:03.419Z,12.99
2022-12-31T13:04:31.930Z,12.99
2022-12-31T13:07:13.345Z,12.96
2022-12-31T13:09:56.635Z,12.97
2022-12-31T13:12:23.151Z,13.03
2022-12-31T13:15:12.528Z,13.07
2022-12-31T13:18:10.422Z,13.09
2022-12-31T13:20:56.787Z,13.05
2022-12-31T13:23:37.869Z,13.07
2022-12-31T13:26:23.619Z,13.06
2022-12-31T13:28:51.929Z,13.02
2022-12-31T13:31:27.157Z,13.00
2022-12-31T13:33:58.185Z,13.01
2022-12-31T13:36:26.936Z,13.05
2022-12-31T13:38:58.979Z,13.06
2022-12-31T13:41:33.479Z,13.06
2022-12-31T13:44:34.819Z,13.04
2022-12-31T13:47:23.560Z,13.03
2022-12-31T13:49:55.733Z,13.01
2022-12-31T13:52:28.610Z,13.02
2022-12-31T13:54:58.133Z,13.03
2022-12-31T13:57:39.933Z,13.03
2022-12-31T14:00:16.884Z,13.06
2022-12-31T14:03:21.053Z,13.07
2022-12-31T14:05:59.469Z,13.07
2022-12-31T14:08:26.603Z,13.04
2022-12-31T14:11:25.249Z,13.01
2022-12-31T14:14:02.883Z,13.01
2022-12-31T14:17:01.550Z,13.04
2022-12-31T14:19:33.262Z,13.06
2022-12-31T14:22:04.495Z,13.06
2022-12-31T14:24:34.065Z,13.07
2022-12-31T14:27:04.360Z,13.05
2022-12-31T14:29:41.177Z,13.02
2022-12-31T14:32:34.945Z,13.00
2022-12-31T14:35:20.612Z,13.00
2022-12-31T14:37:50.485Z,13.03
2022-12-31T14:40:37.414Z,13.04
2022-12-31T14:43:27.277Z,13.07
2022-12-31T14:46:24.963Z,13.07
2022-12-31T14:49:04.463Z,13.08
2022-12-31T14:51:31.208Z,13.08
2022-12-31T14:53:58.182Z,13.08
2022-12-31T14:56:38.540Z,13.12
2022-12-31T14:59:22.887Z,13.17
2022-12-31T15:01:49.581Z,13.19
2022-12-31T15:04:16.134Z,13.19
2022-12-31T15:07:21.304Z,13.18
2022-12-31T15:10:03.538Z,13.16
2022-12-31T15:12:48.160Z,13.12
2022-12-31T15:15:24.575Z,13.12
2022-12-31T15:18:12.148Z,13.14
2022-12-31T15:20:54.212Z,13.15
2022-12-31T15:23:29.429Z,13.16
2022-12-31T15:26:01.687Z,13.18
2022-12-31T15:28:37.022Z,13.18
2022-12-31T15:31:17.725Z,13.17
2022-12-31T15:34:24.234Z,13.16
2022-12-31T15:36:53.106Z,13.19
2022-12-31T15:39:42.232Z,13.22
2022-12-31T15:42:47.247Z,13.24
2022-12-31T15:45:24.281Z,13.26
2022-12-31T15:47:58.758Z,13.26
2022-12-31T15:50:25.897Z,13.26
2022-12-31T15:52:55.578Z,13.24
2022-12-31T15:55:42.497Z,13.22
2022-12-31T15:58:15.857Z,13.24
2022-12-31T16:01:03.994Z,13.26
2022-12-31T16:03:31.172Z,13.29
2022-12-31T16:06:01.053Z,13.31
2022-12-31T16:08:31.713Z,13.32
2022-12-31T16:10:58.464Z,13.34
2022-12-31T16:13:25.855Z,13.37
2022-12-31T16:16:05.980Z,13.36
2022-12-31T16:18:39.819Z,13.38
2022-12-31T16:21:22.967Z,13.40
2022-12-31T16:23:54.027Z,13.41
2022-12-31T16:26:22.989Z,13.42
2022-12-31T16:28:49.409Z,13.43
2022-12-31T16:31:19.007Z,13.44
2022-12-31T16:33:46.561Z,13.41
2022-12-31T16:36:22.239Z,13.40
2022-12-31T16:38:49.097Z,13.41
2022-12-31T16:41:20.212Z,13.42
2022-12-31T16:43:49.998Z,13.45
2022-12-31T16:46:26.312Z,13.49
2022-12-31T16:48:54.617Z,13.50
2022-12-31T16:51:24.312Z,13.50
2022-12-31T16:53:51.548Z,13.51
2022-12-31T16:56:28.782Z,13.50
2022-12-31T16:59:01.907Z,13.51
2022-12-31T17:01:31.457Z,13.53
2022-12-31T17:04:00.087Z,13.56
2022-12-31T17:06:27.790Z,13.59
2022-12-31T17:08:59.173Z,13.61
2022-12-31T17:11:52.807Z,13.61
2022-12-31T17:14:25.119Z,13.59
2022-12-31T17:17:05.025Z,13.57
2022-12-31T17:19:38.833Z,13.56
2022-12-31T17:22:09.951Z,13.58
2022-12-31T17:24:37.472Z,13.59
2022-12-31T17:27:07.814Z,13.60
2022-12-31T17:29:34.905Z,13.59
2022-12-31T17:32:04.949Z,13.58
2022-12-31T17:34:39.575Z,13.56
2022-12-31T17:37:06.130Z,13.53
2022-12-31T17:39:40.128Z,13.53
2022-12-31T17:42:08.415Z,13.53
2022-12-31T17:44:38.265Z,13.55
2022-12-31T17:47:05.687Z,13.57
2022-12-31T17:49:32.692Z,13.56
2022-12-31T17:51:59.072Z,13.57
2022-12-31T17:54:25.623Z,13.56
2022-12-31T17:56:53.062Z,13.55
2022-12-31T17:59:24.748Z,13.53
2022-12-31T18:01:51.360Z,13.53
2022-12-31T18:04:18.445Z,13.55
2022-12-31T18:06:45.115Z,13.55
2022-12-31T18:09:11.609Z,13.56
2022-12-31T18:11:39.703Z,13.56
2022-12-31T18:14:06.718Z,13.53
2022-12-31T18:16:33.624Z,13.50
2022-12-31T18:19:00.590Z,13.46
2022-12-31T18:21:31.929Z,13.42
2022-12-31T18:26:25.830Z,13.38
2022-12-31T18:28:52.776Z,13.39
2022-12-31T18:31:24.514Z,13.39
2022-12-31T18:33:52.634Z,13.39
2022-12-31T18:36:20.652Z,13.37
2022-12-31T18:38:47.194Z,13.34
2022-12-31T18:41:22.180Z,13.30
2022-12-31T18:43:48.849Z,13.30
2022-12-31T18:46:19.689Z,13.31
2022-12-31T18:48:46.488Z,13.32
2022-12-31T18:51:15.198Z,13.33
2022-12-31T18:53:41.778Z,13.32
2022-12-31T18:56:17.285Z,13.31
2022-12-31T18:58:44.300Z,13.30
2022-12-31T19:01:34.061Z,13.26
2022-12-31T19:04:03.306Z,13.24
2022-12-31T19:06:29.960Z,13.24
2022-12-31T19:08:56.384Z,13.26
2022-12-31T19:11:23.266Z,13.29
2022-12-31T19:13:50.100Z,13.31
2022-12-31T19:16:17.290Z,13.34
2022-12-31T19:18:44.486Z,13.32
2022-12-31T19:21:16.286Z,13.32
2022-12-31T19:23:42.977Z,13.30
2022-12-31T19:26:14.985Z,13.27
2022-12-31T19:28:41.906Z,13.27
2022-12-31T19:31:08.358Z,13.29
2022-12-31T19:33:34.936Z,13.31
2022-12-31T19:36:01.368Z,13.32
2022-12-31T19:38:33.687Z,13.34
2022-12-31T19:41:01.196Z,13.34
2022-12-31T19:43:27.634Z,13.32
2022-12-31T19:45:53.961Z,13.31
2022-12-31T19:48:28.557Z,13.28
2022-12-31T19:50:56.934Z,13.28
2022-12-31T19:53:25.633Z,13.30
2022-12-31T19:55:52.803Z,13.34
2022-12-31T19:58:22.128Z,13.38
2022-12-31T20:00:55.709Z,13.43
2022-12-31T20:03:25.459Z,13.48
2022-12-31T20:06:07.074Z,13.50
2022-12-31T20:08:34.345Z,13.49
2022-12-31T20:11:11.308Z,13.48
2022-12-31T20:13:38.181Z,13.46
2022-12-31T20:16:08.996Z,13.46
2022-12-31T20:18:37.033Z,13.49
2022-12-31T20:21:03.870Z,13.50
2022-12-31T20:23:33.569Z,13.53
2022-12-31T20:26:00.630Z,13.55
2022-12-31T20:28:27.121Z,13.55
2022-12-31T20:30:54.090Z,13.56
2022-12-31T20:33:20.888Z,13.55
2022-12-31T20:35:47.498Z,13.54
2022-12-31T20:38:14.385Z,13.52
2022-12-31T20:40:46.452Z,13.52
2022-12-31T20:43:13.628Z,13.54
2022-12-31T20:45:40.911Z,13.56
2022-12-31T20:48:07.612Z,13.57
2022-12-31T20:50:34.033Z,13.56
2022-12-31T20:53:01.348Z,13.53
2022-12-31T20:55:27.823Z,13.50
2022-12-31T20:57:54.206Z,13.48
2022-12-31T21:00:20.889Z,13.45
2022-12-31T21:02:55.520Z,13.41
2022-12-31T21:05:24.826Z,13.37
2022-12-31T21:07:51.368Z,13.34
2022-12-31T21:10:17.763Z,13.33
2022-12-31T21:12:44.635Z,13.34
2022-12-31T21:15:12.314Z,13.36
2022-12-31T21:17:39.190Z,13.33
2022-12-31T21:20:06.690Z,13.33
2022-12-31T21:22:33.097Z,13.32
2022-12-31T21:25:00.716Z,13.31
2022-12-31T21:27:28.841Z,13.28
2022-12-31T21:30:17.657Z,13.26
2022-12-31T21:32:42.203Z,13.26
2022-12-31T21:35:41.223Z,13.27
2022-12-31T21:38:00.606Z,13.30
2022-12-31T21:40:27.792Z,13.33
2022-12-31T21:42:54.208Z,13.33
2022-12-31T21:45:20.782Z,13.32
2022-12-31T21:48:05.710Z,13.32
2022-12-31T21:50:33.112Z,13.29
2022-12-31T21:52:59.470Z,13.26
2022-12-31T21:55:44.805Z,13.22
2022-12-31T21:58:28.077Z,13.21
2022-12-31T22:01:14.930Z,13.22
2022-12-31T22:03:42.129Z,13.23
2022-12-31T22:06:22.616Z,13.24
2022-12-31T22:08:54.470Z,13.24
2022-12-31T22:11:24.010Z,13.23
2022-12-31T22:13:50.664Z,13.19
2022-12-31T22:16:18.454Z,13.15
2022-12-31T22:18:45.695Z,13.09
2022-12-31T22:21:18.794Z,13.05
2022-12-31T22:23:53.833Z,13.00
2022-12-31T22:26:26.092Z,12.98
2022-12-31T22:28:53.984Z,13.00
2022-12-31T22:31:24.283Z,13.02
2022-12-31T22:33:51.061Z,13.05
2022-12-31T22:36:18.472Z,13.03
2022-12-31T22:38:45.403Z,13.01
2022-12-31T22:41:17.868Z,12.99
2022-12-31T22:43:50.527Z,12.97
2022-12-31T22:46:25.440Z,12.94
2022-12-31T22:48:53.435Z,12.92
2022-12-31T22:51:20.524Z,12.89
2022-12-31T22:53:47.027Z,12.89
2022-12-31T22:56:15.756Z,12.90
2022-12-31T22:58:42.607Z,12.93
2022-12-31T23:01:21.293Z,12.96
2022-12-31T23:03:49.450Z,12.97
2022-12-31T23:06:16.428Z,12.95
2022-12-31T23:09:05.763Z,12.93
2022-12-31T23:11:34.353Z,12.88
2022-12-31T23:14:20.165Z,12.83
2022-12-31T23:17:30.790Z,12.79
2022-12-31T23:20:10.152Z,12.73
2022-12-31T23:22:55.438Z,12.71
2022-12-31T23:25:21.809Z,12.71
2022-12-31T23:27:48.601Z,12.75
2022-12-31T23:30:15.023Z,12.77
2022-12-31T23:32:41.394Z,12.76
2022-12-31T23:35:10.016Z,12.74
2022-12-31T23:37:36.774Z,12.70
2022-12-31T23:40:03.450Z,12.67
2022-12-31T23:42:30.337Z,12.66
2022-12-31T23:44:56.758Z,12.65
2022-12-31T23:47:23.220Z,12.62
2022-12-31T23:49:49.882Z,12.62
2022-12-31T23:52:16.247Z,12.65
2022-12-31T23:54:42.761Z,12.68
2022-12-31T23:57:09.913Z,12.71
2022-12-31T23:59:37.419Z,12.73
